METAR Data
IDs: Format: Raw Decoded Include TAF

Data at: 0915 UTC 18 Jan 2019

PASL 180856Z AUTO VRB03KT 10SM CLR M10/M13 A2985 RMK AO2 SLP107 T11001128 410611117 52007 FZRANO
PASL 180656Z AUTO 00000KT 10SM BKN025 M09/M11 A2984 RMK AO2 SLP102 T10891111 FZRANO
PASL 180556Z AUTO VRB04KT 10SM OVC060 M08/M11 A2983 RMK AO2 SLP100 T10831106 11061 21089 52001 FZRANO
PASL 180156Z AUTO 00000KT 10SM SCT034 OVC044 M07/M09 A2983 RMK AO2 SLP098 T10671089 FZRANO
PASL 172356Z AUTO 00000KT 10SM OVC028 M06/M08 A2983 RMK AO2 SNE36 SLP098 P0000 60000 T10611083 11061 21094 58004 FZRANO
PASL 172313Z AUTO 00000KT 9SM -SN BKN026 OVC032 M07/M08 A2984 RMK AO2 P0000 FZRANO
PASL 172256Z AUTO 00000KT 6SM -SN BR SCT024 BKN032 OVC050 M07/M08 A2984 RMK AO2 SLP101 P0000 T10671083 FZRANO
PASL 172213Z AUTO 00000KT 5SM -SN BR BKN024 BKN028 OVC055 M08/M09 A2984 RMK AO2 P0000 FZRANO
PASL 172156Z AUTO 00000KT 7SM -SN BKN033 OVC055 M08/M09 A2984 RMK AO2 SNB02 SLP100 P0000 T10781094 FZRANO
PASL 172146Z AUTO 00000KT 8SM -SN FEW023 BKN033 OVC050 M08/M09 A2984 RMK AO2 SNB02 P0000 FZRANO
PASL 172056Z AUTO 00000KT 10SM BKN022 OVC034 M08/M10 A2984 RMK AO2 SLP102 T10831100 51004 FZRANO
PASL 171956Z AUTO 00000KT 10SM OVC018 M09/M11 A2984 RMK AO2 SLP101 T10891106 FZRANO
PASL 171856Z AUTO 00000KT 10SM OVC018 M09/M11 A2983 RMK AO2 SLP100 T10891106 FZRANO
PASL 171756Z AUTO 00000KT 10SM BKN018 BKN047 OVC060 M09/M11 A2983 RMK AO2 SNB04E15 SLP098 P0000 60000 T10941111 11089 21106 53003 FZRANO
PASL 171656Z AUTO 00000KT 9SM OVC060 M09/M11 A2982 RMK AO2 SNB18E52 SLP096 P0000 T10941111 FZRANO
PASL 171556Z AUTO 00000KT 10SM OVC060 M09/M11 A2982 RMK AO2 SNE10 SLP094 P0000 T10891111 FZRANO
PASL 171456Z AUTO 00000KT 9SM -SN SCT037 BKN045 OVC055 M09/M12 A2982 RMK AO2 UPB51E53SNE51B53 SLP094 P0000 60000 T10941117 51003 FZRANO
PASL 171356Z AUTO 00000KT 9SM -SN BKN034 OVC043 M10/M12 A2982 RMK AO2 SNB10 SLP094 P0000 T11001117 FZRANO
PASL 171256Z AUTO 00000KT 10SM FEW036 BKN046 OVC060 M11/M12 A2982 RMK AO2 SLP095 T11061122 FZRANO
PASL 171156Z AUTO 00000KT 10SM FEW037 BKN050 OVC120 M11/M13 A2981 RMK AO2 SNE21 SLP091 P0000 60000 T11061128 11106 21144 51008 FZRANO
PASL 171056Z AUTO 00000KT 7SM -SN BKN038 BKN046 OVC060 M11/M13 A2980 RMK AO2 SLP088 P0000 T11111128 FZRANO
PASL 170956Z AUTO 00000KT 9SM -SN OVC070 M12/M13 A2980 RMK AO2 SLP088 P0000 T11171133 FZRANO
PASL 170856Z AUTO 00000KT 9SM -SN OVC070 M12/M14 A2979 RMK AO2 SNB50 SLP083 P0000 60000 T11221139 411221261 51013 FZRANO
PASL 170756Z AUTO 00000KT 10SM OVC065 M13/M14 A2978 RMK AO2 SLP081 T11281144 FZRANO
PASL 170656Z AUTO 00000KT 10SM OVC070 M13/M15 A2977 RMK AO2 SLP077 T11331150 FZRANO
PASL 170556Z AUTO 00000KT 10SM OVC080 M14/M16 A2975 RMK AO2 SLP071 T11441161 11144 21211 53005 FZRANO
PASL 170456Z AUTO 00000KT 10SM OVC080 M15/M17 A2972 RMK AO2 SLP061 T11501167 FZRANO
PASL 170356Z AUTO 21003KT 10SM OVC065 M16/M18 A2973 RMK AO2 SLP066 T11611178 FZRANO
PASL 170256Z AUTO 20003KT 10SM BKN070 OVC090 M17/M19 A2973 RMK AO2 SLP066 T11671189 56006 FZRANO
PASL 170156Z AUTO 00000KT 10SM SCT060 OVC075 M18/M20 A2974 RMK AO2 SLP069 T11781200 FZRANO
PASL 170056Z AUTO 00000KT 10SM OVC060 M19/M22 A2973 RMK AO2 SLP066 T11941217 FZRANO
PASL 162356Z AUTO 00000KT 10SM FEW090 M21/M23 A2975 RMK AO2 SLP072 T12111233 11211 21261 55000 FZRANO
PASL 162256Z AUTO 00000KT 7SM CLR M23/M26 A2975 RMK AO2 SLP071 T12281256 FZRANO
PASL 162156Z AUTO 00000KT 10SM CLR M24/M27 A2976 RMK AO2 SLP074 T12441267 FZRANO